sensor_id;sensor_type;location;lat;lon;timestamp;P1;durP1;ratioP1;P2;durP2;ratioP2
74227;SDS011;62587;52.352;5.006;2023-04-01T00:00:31;3.55;;;2.22;;
74227;SDS011;62587;52.352;5.006;2023-04-01T00:02:57;5.30;;;2.50;;
74227;SDS011;62587;52.352;5.006;2023-04-01T00:05:22;3.95;;;2.20;;
74227;SDS011;62587;52.352;5.006;2023-04-01T00:07:49;3.55;;;1.90;;
74227;SDS011;62587;52.352;5.006;2023-04-01T00:10:15;3.60;;;2.13;;
74227;SDS011;62587;52.352;5.006;2023-04-01T00:12:41;3.58;;;2.22;;
74227;SDS011;62587;52.352;5.006;2023-04-01T00:15:07;4.50;;;2.60;;
74227;SDS011;62587;52.352;5.006;2023-04-01T00:17:34;3.47;;;2.30;;
74227;SDS011;62587;52.352;5.006;2023-04-01T00:20:00;4.07;;;2.30;;
74227;SDS011;62587;52.352;5.006;2023-04-01T00:22:26;3.83;;;2.10;;
74227;SDS011;62587;52.352;5.006;2023-04-01T00:24:52;4.95;;;2.58;;
74227;SDS011;62587;52.352;5.006;2023-04-01T00:27:18;3.70;;;2.10;;
74227;SDS011;62587;52.352;5.006;2023-04-01T00:29:44;3.75;;;2.20;;
74227;SDS011;62587;52.352;5.006;2023-04-01T00:32:11;4.18;;;2.35;;
74227;SDS011;62587;52.352;5.006;2023-04-01T00:34:37;4.65;;;2.22;;
74227;SDS011;62587;52.352;5.006;2023-04-01T00:37:04;3.50;;;1.85;;
74227;SDS011;62587;52.352;5.006;2023-04-01T00:39:30;4.28;;;2.40;;
74227;SDS011;62587;52.352;5.006;2023-04-01T00:41:57;4.60;;;1.70;;
74227;SDS011;62587;52.352;5.006;2023-04-01T00:44:24;5.10;;;2.30;;
74227;SDS011;62587;52.352;5.006;2023-04-01T00:46:59;3.90;;;2.10;;
74227;SDS011;62587;52.352;5.006;2023-04-01T00:49:27;4.05;;;1.92;;
74227;SDS011;62587;52.352;5.006;2023-04-01T00:51:56;3.78;;;2.13;;
74227;SDS011;62587;52.352;5.006;2023-04-01T00:54:25;3.40;;;2.15;;
74227;SDS011;62587;52.352;5.006;2023-04-01T00:56:58;4.13;;;1.92;;
74227;SDS011;62587;52.352;5.006;2023-04-01T00:59:39;4.53;;;1.73;;
74227;SDS011;62587;52.352;5.006;2023-04-01T01:02:08;3.33;;;1.90;;
74227;SDS011;62587;52.352;5.006;2023-04-01T01:04:36;4.55;;;1.92;;
74227;SDS011;62587;52.352;5.006;2023-04-01T01:12:25;4.25;;;1.80;;
74227;SDS011;62587;52.352;5.006;2023-04-01T01:15:10;3.50;;;1.70;;
74227;SDS011;62587;52.352;5.006;2023-04-01T01:34:53;4.93;;;1.77;;
74227;SDS011;62587;52.352;5.006;2023-04-01T01:37:21;3.35;;;1.63;;
74227;SDS011;62587;52.352;5.006;2023-04-01T01:40:00;4.13;;;1.60;;
74227;SDS011;62587;52.352;5.006;2023-04-01T01:42:29;5.32;;;2.30;;
74227;SDS011;62587;52.352;5.006;2023-04-01T01:44:58;3.53;;;1.92;;
74227;SDS011;62587;52.352;5.006;2023-04-01T01:47:25;4.38;;;2.05;;
74227;SDS011;62587;52.352;5.006;2023-04-01T01:49:53;2.75;;;1.33;;
74227;SDS011;62587;52.352;5.006;2023-04-01T01:52:21;3.25;;;1.63;;
74227;SDS011;62587;52.352;5.006;2023-04-01T01:54:51;4.35;;;2.20;;
74227;SDS011;62587;52.352;5.006;2023-04-01T01:57:29;3.67;;;1.60;;
74227;SDS011;62587;52.352;5.006;2023-04-01T02:00:08;3.35;;;1.60;;
74227;SDS011;62587;52.352;5.006;2023-04-01T02:02:40;2.80;;;1.48;;
74227;SDS011;62587;52.352;5.006;2023-04-01T02:05:08;4.75;;;1.83;;
74227;SDS011;62587;52.352;5.006;2023-04-01T02:07:39;3.45;;;1.88;;
74227;SDS011;62587;52.352;5.006;2023-04-01T02:10:09;4.45;;;1.92;;
74227;SDS011;62587;52.352;5.006;2023-04-01T02:12:35;3.30;;;1.65;;
74227;SDS011;62587;52.352;5.006;2023-04-01T02:15:06;2.75;;;1.50;;
74227;SDS011;62587;52.352;5.006;2023-04-01T02:17:35;4.00;;;1.73;;
74227;SDS011;62587;52.352;5.006;2023-04-01T02:20:11;3.60;;;1.50;;
74227;SDS011;62587;52.352;5.006;2023-04-01T02:22:41;3.33;;;1.70;;
74227;SDS011;62587;52.352;5.006;2023-04-01T02:25:12;3.22;;;1.70;;
74227;SDS011;62587;52.352;5.006;2023-04-01T02:27:42;4.07;;;1.90;;
74227;SDS011;62587;52.352;5.006;2023-04-01T02:35:03;4.25;;;1.73;;
74227;SDS011;62587;52.352;5.006;2023-04-01T02:37:40;3.28;;;1.48;;
74227;SDS011;62587;52.352;5.006;2023-04-01T02:40:08;3.90;;;1.73;;
74227;SDS011;62587;52.352;5.006;2023-04-01T02:45:02;3.53;;;1.63;;
74227;SDS011;62587;52.352;5.006;2023-04-01T02:47:28;2.97;;;1.73;;
74227;SDS011;62587;52.352;5.006;2023-04-01T02:49:54;2.50;;;1.60;;
74227;SDS011;62587;52.352;5.006;2023-04-01T02:52:23;4.85;;;1.95;;
74227;SDS011;62587;52.352;5.006;2023-04-01T02:54:49;4.03;;;1.77;;
74227;SDS011;62587;52.352;5.006;2023-04-01T02:57:15;2.80;;;1.80;;
74227;SDS011;62587;52.352;5.006;2023-04-01T02:59:40;2.60;;;1.50;;
74227;SDS011;62587;52.352;5.006;2023-04-01T03:02:06;3.00;;;1.60;;
74227;SDS011;62587;52.352;5.006;2023-04-01T03:04:31;2.75;;;1.30;;
74227;SDS011;62587;52.352;5.006;2023-04-01T03:06:57;2.90;;;1.77;;
74227;SDS011;62587;52.352;5.006;2023-04-01T03:09:22;2.95;;;1.60;;
74227;SDS011;62587;52.352;5.006;2023-04-01T03:11:48;2.47;;;1.77;;
74227;SDS011;62587;52.352;5.006;2023-04-01T03:14:13;2.95;;;1.40;;
74227;SDS011;62587;52.352;5.006;2023-04-01T03:16:38;3.40;;;1.70;;
74227;SDS011;62587;52.352;5.006;2023-04-01T03:19:04;3.30;;;1.80;;
74227;SDS011;62587;52.352;5.006;2023-04-01T03:21:29;2.53;;;1.60;;
74227;SDS011;62587;52.352;5.006;2023-04-01T03:23:55;3.92;;;1.83;;
74227;SDS011;62587;52.352;5.006;2023-04-01T03:26:20;3.28;;;1.70;;
74227;SDS011;62587;52.352;5.006;2023-04-01T03:28:46;3.63;;;1.70;;
74227;SDS011;62587;52.352;5.006;2023-04-01T03:31:12;2.95;;;1.65;;
74227;SDS011;62587;52.352;5.006;2023-04-01T03:33:37;3.15;;;1.67;;
74227;SDS011;62587;52.352;5.006;2023-04-01T03:36:03;3.55;;;1.80;;
74227;SDS011;62587;52.352;5.006;2023-04-01T03:38:32;2.95;;;1.80;;
74227;SDS011;62587;52.352;5.006;2023-04-01T03:41:01;2.90;;;1.60;;
74227;SDS011;62587;52.352;5.006;2023-04-01T03:43:27;2.42;;;1.40;;
74227;SDS011;62587;52.352;5.006;2023-04-01T03:45:52;2.60;;;1.50;;
74227;SDS011;62587;52.352;5.006;2023-04-01T03:48:19;3.00;;;1.52;;
74227;SDS011;62587;52.352;5.006;2023-04-01T03:50:45;2.08;;;1.25;;
74227;SDS011;62587;52.352;5.006;2023-04-01T03:53:10;2.40;;;1.23;;
74227;SDS011;62587;52.352;5.006;2023-04-01T03:55:36;2.28;;;1.50;;
74227;SDS011;62587;52.352;5.006;2023-04-01T03:58:03;2.63;;;1.63;;
74227;SDS011;62587;52.352;5.006;2023-04-01T04:00:29;2.58;;;1.40;;
74227;SDS011;62587;52.352;5.006;2023-04-01T04:02:55;2.35;;;1.60;;
74227;SDS011;62587;52.352;5.006;2023-04-01T04:05:22;1.92;;;1.52;;
74227;SDS011;62587;52.352;5.006;2023-04-01T04:07:48;2.65;;;1.50;;
74227;SDS011;62587;52.352;5.006;2023-04-01T04:10:15;3.17;;;1.33;;
74227;SDS011;62587;52.352;5.006;2023-04-01T04:12:40;2.20;;;1.45;;
74227;SDS011;62587;52.352;5.006;2023-04-01T04:15:06;2.67;;;1.50;;
74227;SDS011;62587;52.352;5.006;2023-04-01T04:17:32;2.00;;;1.17;;
74227;SDS011;62587;52.352;5.006;2023-04-01T04:19:58;2.35;;;1.35;;
74227;SDS011;62587;52.352;5.006;2023-04-01T04:22:23;1.98;;;1.42;;
74227;SDS011;62587;52.352;5.006;2023-04-01T04:24:49;2.90;;;1.30;;
74227;SDS011;62587;52.352;5.006;2023-04-01T04:27:14;2.38;;;1.20;;
74227;SDS011;62587;52.352;5.006;2023-04-01T04:29:40;1.90;;;1.02;;
74227;SDS011;62587;52.352;5.006;2023-04-01T04:32:05;2.17;;;1.23;;
74227;SDS011;62587;52.352;5.006;2023-04-01T04:34:31;2.13;;;1.40;;
74227;SDS011;62587;52.352;5.006;2023-04-01T04:36:56;2.15;;;1.30;;
74227;SDS011;62587;52.352;5.006;2023-04-01T04:39:21;1.50;;;1.10;;
74227;SDS011;62587;52.352;5.006;2023-04-01T04:41:47;2.10;;;1.48;;
74227;SDS011;62587;52.352;5.006;2023-04-01T04:44:12;1.65;;;1.30;;
74227;SDS011;62587;52.352;5.006;2023-04-01T04:46:38;1.90;;;1.38;;
74227;SDS011;62587;52.352;5.006;2023-04-01T04:49:04;2.08;;;1.25;;
74227;SDS011;62587;52.352;5.006;2023-04-01T04:51:30;2.60;;;1.50;;
74227;SDS011;62587;52.352;5.006;2023-04-01T04:53:59;1.50;;;1.02;;
74227;SDS011;62587;52.352;5.006;2023-04-01T04:56:25;1.73;;;1.30;;
74227;SDS011;62587;52.352;5.006;2023-04-01T04:58:51;1.90;;;1.40;;
74227;SDS011;62587;52.352;5.006;2023-04-01T05:01:17;2.17;;;1.45;;
74227;SDS011;62587;52.352;5.006;2023-04-01T05:03:43;2.13;;;1.42;;
74227;SDS011;62587;52.352;5.006;2023-04-01T05:06:10;1.77;;;1.23;;
74227;SDS011;62587;52.352;5.006;2023-04-01T05:08:37;1.90;;;1.20;;
74227;SDS011;62587;52.352;5.006;2023-04-01T05:11:06;1.90;;;1.20;;
74227;SDS011;62587;52.352;5.006;2023-04-01T05:13:34;2.05;;;1.42;;
74227;SDS011;62587;52.352;5.006;2023-04-01T05:16:00;1.70;;;1.20;;
74227;SDS011;62587;52.352;5.006;2023-04-01T05:18:25;1.50;;;1.03;;
74227;SDS011;62587;52.352;5.006;2023-04-01T05:20:52;2.10;;;1.30;;
74227;SDS011;62587;52.352;5.006;2023-04-01T05:23:18;1.98;;;1.42;;
74227;SDS011;62587;52.352;5.006;2023-04-01T05:25:46;1.63;;;1.33;;
74227;SDS011;62587;52.352;5.006;2023-04-01T05:28:12;2.17;;;1.30;;
74227;SDS011;62587;52.352;5.006;2023-04-01T05:30:41;1.70;;;1.30;;
74227;SDS011;62587;52.352;5.006;2023-04-01T05:33:08;2.10;;;1.17;;
74227;SDS011;62587;52.352;5.006;2023-04-01T05:35:34;1.83;;;1.33;;
74227;SDS011;62587;52.352;5.006;2023-04-01T05:38:00;1.90;;;1.30;;
74227;SDS011;62587;52.352;5.006;2023-04-01T05:40:26;1.70;;;1.02;;
74227;SDS011;62587;52.352;5.006;2023-04-01T05:42:52;2.25;;;1.42;;
74227;SDS011;62587;52.352;5.006;2023-04-01T05:45:18;1.90;;;1.30;;
74227;SDS011;62587;52.352;5.006;2023-04-01T05:47:43;1.58;;;1.15;;
74227;SDS011;62587;52.352;5.006;2023-04-01T05:50:09;2.10;;;1.40;;
74227;SDS011;62587;52.352;5.006;2023-04-01T05:52:36;1.98;;;1.40;;
74227;SDS011;62587;52.352;5.006;2023-04-01T05:55:02;1.60;;;1.17;;
74227;SDS011;62587;52.352;5.006;2023-04-01T05:57:28;1.63;;;1.10;;
74227;SDS011;62587;52.352;5.006;2023-04-01T05:59:53;2.15;;;1.50;;
74227;SDS011;62587;52.352;5.006;2023-04-01T06:02:18;2.50;;;1.30;;
74227;SDS011;62587;52.352;5.006;2023-04-01T06:04:44;1.70;;;1.40;;
74227;SDS011;62587;52.352;5.006;2023-04-01T06:07:10;1.75;;;1.30;;
74227;SDS011;62587;52.352;5.006;2023-04-01T06:09:37;1.75;;;1.13;;
74227;SDS011;62587;52.352;5.006;2023-04-01T06:17:41;1.70;;;1.20;;
74227;SDS011;62587;52.352;5.006;2023-04-01T06:37:48;2.13;;;1.55;;
74227;SDS011;62587;52.352;5.006;2023-04-01T06:45:46;2.22;;;1.30;;
74227;SDS011;62587;52.352;5.006;2023-04-01T06:48:42;2.67;;;1.15;;
74227;SDS011;62587;52.352;5.006;2023-04-01T06:51:41;2.08;;;1.38;;
74227;SDS011;62587;52.352;5.006;2023-04-01T06:54:10;2.17;;;1.20;;
74227;SDS011;62587;52.352;5.006;2023-04-01T06:56:42;2.20;;;1.38;;
74227;SDS011;62587;52.352;5.006;2023-04-01T06:59:17;2.33;;;1.25;;
74227;SDS011;62587;52.352;5.006;2023-04-01T07:01:47;2.15;;;1.50;;
74227;SDS011;62587;52.352;5.006;2023-04-01T07:04:18;2.00;;;1.35;;
74227;SDS011;62587;52.352;5.006;2023-04-01T07:06:57;1.95;;;1.38;;
74227;SDS011;62587;52.352;5.006;2023-04-01T07:09:35;1.80;;;1.23;;
74227;SDS011;62587;52.352;5.006;2023-04-01T07:12:20;1.42;;;1.10;;
74227;SDS011;62587;52.352;5.006;2023-04-01T07:14:53;1.88;;;1.20;;
74227;SDS011;62587;52.352;5.006;2023-04-01T07:17:22;1.98;;;1.05;;
74227;SDS011;62587;52.352;5.006;2023-04-01T07:19:52;2.00;;;1.40;;
74227;SDS011;62587;52.352;5.006;2023-04-01T07:22:38;1.95;;;1.13;;
74227;SDS011;62587;52.352;5.006;2023-04-01T07:25:13;1.95;;;1.30;;
74227;SDS011;62587;52.352;5.006;2023-04-01T07:28:02;2.08;;;1.20;;
74227;SDS011;62587;52.352;5.006;2023-04-01T07:30:45;3.30;;;1.58;;
74227;SDS011;62587;52.352;5.006;2023-04-01T08:07:17;2.30;;;1.75;;
74227;SDS011;62587;52.352;5.006;2023-04-01T08:10:10;1.92;;;1.48;;
74227;SDS011;62587;52.352;5.006;2023-04-01T08:18:37;2.58;;;1.65;;
74227;SDS011;62587;52.352;5.006;2023-04-01T08:21:14;1.77;;;1.30;;
74227;SDS011;62587;52.352;5.006;2023-04-01T08:23:48;2.28;;;1.25;;
74227;SDS011;62587;52.352;5.006;2023-04-01T08:26:36;2.13;;;1.30;;
74227;SDS011;62587;52.352;5.006;2023-04-01T08:32:06;1.70;;;1.10;;
74227;SDS011;62587;52.352;5.006;2023-04-01T08:34:48;2.17;;;1.20;;
74227;SDS011;62587;52.352;5.006;2023-04-01T08:37:21;1.63;;;1.17;;
74227;SDS011;62587;52.352;5.006;2023-04-01T08:39:54;1.90;;;1.17;;
74227;SDS011;62587;52.352;5.006;2023-04-01T08:42:40;1.88;;;1.40;;
74227;SDS011;62587;52.352;5.006;2023-04-01T08:53:21;2.35;;;1.15;;
74227;SDS011;62587;52.352;5.006;2023-04-01T09:04:39;2.70;;;1.20;;
74227;SDS011;62587;52.352;5.006;2023-04-01T09:10:16;1.70;;;1.27;;
